Terminal Aerodrome Forecast
Issued by NWS

Home | Current Version | Previous Version | Text Only | Print | Product List | Glossary On
Versions: 1 2 3 4 5 6 7 8 9 10 11 12 13 14 15
000
FTUS45 KBYZ 242111 AAA
TAFLVM
TAF AMD
KLVM 242111Z 2421/2518 29030G40KT P6SM SCT120
     FM250300 29015G30KT P6SM SKC
     FM251000 30015KT P6SM SCT070 BKN150=

USA.gov is the U.S. government's official web portal to all federal, state and local government web resources and services.